Boys Ranch, Texas
Current Conditions -  °F | °C
As of 6:55 AM on Saturday 20 Dec 2014 (Local Time) from KDUX Reporting Station
Moderate Fog Moderate Fog  
Wind Chill: 24°   Ceiling: 200
Heat Index: 30°   Visibility: 0.5mi
Dew Point: 30°   Wind: 6mph
Humidity: 99%   Direction: 250°WSW
Pressure: 30.09"   Gusts: NA
Location:  35.53°N, 102.26°W
Report Text: KDUX 201255Z AUTO 25005KT 1/2SM FZFG OVC002 M01/M01 A3009 RMK AO2 T10101011
Loading
Personal Weather Stations






























Interactive Weather Map New forecast layout! Learn more

10-Day Weather Forecast

Advertisements
Track Severe Weather on mobile